sensor_id;sensor_type;location;lat;lon;timestamp;P1;durP1;ratioP1;P2;durP2;ratioP2
51467;SDS011;37545;45.302;-122.946;2023-09-30T00:01:05;1.27;;;0.82;;
51467;SDS011;37545;45.302;-122.946;2023-09-30T00:03:37;4.28;;;0.90;;
51467;SDS011;37545;45.302;-122.946;2023-09-30T00:06:07;3.17;;;1.13;;
51467;SDS011;37545;45.302;-122.946;2023-09-30T00:08:36;1.30;;;0.80;;
51467;SDS011;37545;45.302;-122.946;2023-09-30T00:11:05;4.95;;;1.15;;
51467;SDS011;37545;45.302;-122.946;2023-09-30T00:13:35;1.58;;;0.88;;
51467;SDS011;37545;45.302;-122.946;2023-09-30T00:16:05;1.75;;;0.90;;
51467;SDS011;37545;45.302;-122.946;2023-09-30T00:18:34;1.05;;;0.73;;
51467;SDS011;37545;45.302;-122.946;2023-09-30T00:21:03;1.80;;;1.17;;
51467;SDS011;37545;45.302;-122.946;2023-09-30T00:23:31;1.65;;;0.60;;
51467;SDS011;37545;45.302;-122.946;2023-09-30T00:26:00;1.40;;;0.82;;
51467;SDS011;37545;45.302;-122.946;2023-09-30T00:28:29;3.95;;;1.08;;
51467;SDS011;37545;45.302;-122.946;2023-09-30T00:30:57;2.78;;;1.17;;
51467;SDS011;37545;45.302;-122.946;2023-09-30T00:33:27;2.30;;;1.38;;
51467;SDS011;37545;45.302;-122.946;2023-09-30T00:35:56;2.25;;;1.38;;
51467;SDS011;37545;45.302;-122.946;2023-09-30T00:38:25;4.28;;;1.10;;
51467;SDS011;37545;45.302;-122.946;2023-09-30T00:40:54;3.22;;;1.27;;
51467;SDS011;37545;45.302;-122.946;2023-09-30T00:43:22;1.88;;;0.93;;
51467;SDS011;37545;45.302;-122.946;2023-09-30T00:45:51;1.95;;;1.10;;
51467;SDS011;37545;45.302;-122.946;2023-09-30T00:48:27;1.88;;;1.33;;
51467;SDS011;37545;45.302;-122.946;2023-09-30T00:50:56;4.15;;;1.40;;
51467;SDS011;37545;45.302;-122.946;2023-09-30T00:53:33;7.93;;;1.98;;
51467;SDS011;37545;45.302;-122.946;2023-09-30T00:56:02;3.05;;;1.20;;
51467;SDS011;37545;45.302;-122.946;2023-09-30T00:58:31;2.58;;;1.42;;
51467;SDS011;37545;45.302;-122.946;2023-09-30T01:01:05;3.30;;;1.20;;
51467;SDS011;37545;45.302;-122.946;2023-09-30T01:03:37;4.70;;;1.55;;
51467;SDS011;37545;45.302;-122.946;2023-09-30T01:06:05;2.13;;;1.10;;
51467;SDS011;37545;45.302;-122.946;2023-09-30T01:08:35;2.60;;;1.33;;
51467;SDS011;37545;45.302;-122.946;2023-09-30T01:11:04;1.77;;;1.00;;
51467;SDS011;37545;45.302;-122.946;2023-09-30T01:13:34;2.50;;;1.10;;
51467;SDS011;37545;45.302;-122.946;2023-09-30T01:16:03;4.15;;;1.45;;
51467;SDS011;37545;45.302;-122.946;2023-09-30T01:18:35;2.53;;;1.08;;
51467;SDS011;37545;45.302;-122.946;2023-09-30T01:21:08;1.10;;;0.90;;
51467;SDS011;37545;45.302;-122.946;2023-09-30T01:23:39;3.95;;;1.23;;
51467;SDS011;37545;45.302;-122.946;2023-09-30T01:26:09;4.00;;;1.25;;
51467;SDS011;37545;45.302;-122.946;2023-09-30T01:28:39;1.15;;;1.00;;
51467;SDS011;37545;45.302;-122.946;2023-09-30T01:31:09;1.90;;;1.10;;
51467;SDS011;37545;45.302;-122.946;2023-09-30T01:33:37;2.03;;;1.20;;
51467;SDS011;37545;45.302;-122.946;2023-09-30T01:36:06;2.55;;;1.48;;
51467;SDS011;37545;45.302;-122.946;2023-09-30T01:38:34;3.60;;;1.30;;
51467;SDS011;37545;45.302;-122.946;2023-09-30T01:41:05;2.38;;;1.30;;
51467;SDS011;37545;45.302;-122.946;2023-09-30T01:43:34;4.93;;;1.48;;
51467;SDS011;37545;45.302;-122.946;2023-09-30T01:46:03;2.50;;;1.30;;
51467;SDS011;37545;45.302;-122.946;2023-09-30T01:48:32;2.63;;;1.33;;
51467;SDS011;37545;45.302;-122.946;2023-09-30T01:51:00;6.13;;;1.63;;
51467;SDS011;37545;45.302;-122.946;2023-09-30T01:53:29;2.20;;;1.50;;
51467;SDS011;37545;45.302;-122.946;2023-09-30T01:56:00;3.40;;;1.42;;
51467;SDS011;37545;45.302;-122.946;2023-09-30T01:58:31;2.75;;;1.27;;
51467;SDS011;37545;45.302;-122.946;2023-09-30T02:01:01;2.25;;;1.38;;
51467;SDS011;37545;45.302;-122.946;2023-09-30T02:03:30;3.78;;;1.48;;
51467;SDS011;37545;45.302;-122.946;2023-09-30T02:05:59;3.00;;;1.48;;
51467;SDS011;37545;45.302;-122.946;2023-09-30T02:08:29;3.47;;;1.52;;
51467;SDS011;37545;45.302;-122.946;2023-09-30T02:10:57;3.72;;;2.00;;
51467;SDS011;37545;45.302;-122.946;2023-09-30T02:13:26;4.05;;;1.40;;
51467;SDS011;37545;45.302;-122.946;2023-09-30T02:15:56;3.72;;;1.52;;
51467;SDS011;37545;45.302;-122.946;2023-09-30T02:18:25;3.92;;;1.55;;
51467;SDS011;37545;45.302;-122.946;2023-09-30T02:20:54;4.55;;;1.67;;
51467;SDS011;37545;45.302;-122.946;2023-09-30T02:23:22;3.17;;;1.80;;
51467;SDS011;37545;45.302;-122.946;2023-09-30T02:25:51;3.10;;;1.95;;
51467;SDS011;37545;45.302;-122.946;2023-09-30T02:28:19;1.98;;;1.40;;
51467;SDS011;37545;45.302;-122.946;2023-09-30T02:30:51;2.67;;;1.50;;
51467;SDS011;37545;45.302;-122.946;2023-09-30T02:33:21;4.43;;;1.98;;
51467;SDS011;37545;45.302;-122.946;2023-09-30T02:35:51;3.95;;;1.73;;
51467;SDS011;37545;45.302;-122.946;2023-09-30T02:38:20;13.43;;;1.90;;
51467;SDS011;37545;45.302;-122.946;2023-09-30T02:40:48;2.85;;;1.70;;
51467;SDS011;37545;45.302;-122.946;2023-09-30T02:43:17;3.30;;;1.98;;
51467;SDS011;37545;45.302;-122.946;2023-09-30T02:45:47;2.33;;;1.73;;
51467;SDS011;37545;45.302;-122.946;2023-09-30T02:48:16;3.50;;;1.90;;
51467;SDS011;37545;45.302;-122.946;2023-09-30T02:50:47;1.88;;;1.17;;
51467;SDS011;37545;45.302;-122.946;2023-09-30T02:53:19;3.25;;;1.50;;
51467;SDS011;37545;45.302;-122.946;2023-09-30T02:55:48;2.58;;;1.40;;
51467;SDS011;37545;45.302;-122.946;2023-09-30T02:58:21;3.92;;;1.67;;
51467;SDS011;37545;45.302;-122.946;2023-09-30T03:00:50;3.75;;;1.20;;
51467;SDS011;37545;45.302;-122.946;2023-09-30T03:03:19;3.38;;;1.63;;
51467;SDS011;37545;45.302;-122.946;2023-09-30T03:05:49;4.63;;;1.55;;
51467;SDS011;37545;45.302;-122.946;2023-09-30T03:08:18;3.72;;;1.98;;
51467;SDS011;37545;45.302;-122.946;2023-09-30T03:10:48;3.20;;;1.55;;
51467;SDS011;37545;45.302;-122.946;2023-09-30T03:13:17;2.10;;;1.40;;
51467;SDS011;37545;45.302;-122.946;2023-09-30T03:15:47;2.97;;;1.20;;
51467;SDS011;37545;45.302;-122.946;2023-09-30T03:18:18;2.22;;;1.42;;
51467;SDS011;37545;45.302;-122.946;2023-09-30T03:20:57;3.22;;;1.45;;
51467;SDS011;37545;45.302;-122.946;2023-09-30T03:23:27;2.47;;;1.42;;
51467;SDS011;37545;45.302;-122.946;2023-09-30T03:25:56;2.53;;;1.35;;
51467;SDS011;37545;45.302;-122.946;2023-09-30T03:28:25;3.85;;;1.60;;
51467;SDS011;37545;45.302;-122.946;2023-09-30T03:30:54;5.68;;;1.80;;
51467;SDS011;37545;45.302;-122.946;2023-09-30T03:33:26;2.28;;;1.60;;
51467;SDS011;37545;45.302;-122.946;2023-09-30T03:35:56;3.35;;;1.48;;
51467;SDS011;37545;45.302;-122.946;2023-09-30T03:38:25;3.08;;;1.98;;
51467;SDS011;37545;45.302;-122.946;2023-09-30T03:40:54;3.25;;;1.90;;
51467;SDS011;37545;45.302;-122.946;2023-09-30T03:43:24;3.10;;;1.58;;
51467;SDS011;37545;45.302;-122.946;2023-09-30T03:45:53;1.77;;;1.23;;
51467;SDS011;37545;45.302;-122.946;2023-09-30T03:48:23;3.25;;;1.75;;
51467;SDS011;37545;45.302;-122.946;2023-09-30T03:50:52;2.25;;;1.60;;
51467;SDS011;37545;45.302;-122.946;2023-09-30T03:53:22;4.07;;;1.83;;
51467;SDS011;37545;45.302;-122.946;2023-09-30T03:55:52;5.07;;;1.95;;
51467;SDS011;37545;45.302;-122.946;2023-09-30T03:58:21;3.03;;;1.75;;
51467;SDS011;37545;45.302;-122.946;2023-09-30T04:00:49;4.38;;;1.90;;
51467;SDS011;37545;45.302;-122.946;2023-09-30T04:03:19;4.57;;;1.58;;
51467;SDS011;37545;45.302;-122.946;2023-09-30T04:05:48;3.83;;;1.70;;
51467;SDS011;37545;45.302;-122.946;2023-09-30T04:08:17;6.30;;;2.22;;
51467;SDS011;37545;45.302;-122.946;2023-09-30T04:10:49;7.68;;;2.08;;
51467;SDS011;37545;45.302;-122.946;2023-09-30T04:13:18;6.97;;;1.98;;
51467;SDS011;37545;45.302;-122.946;2023-09-30T04:15:47;3.78;;;1.73;;
51467;SDS011;37545;45.302;-122.946;2023-09-30T04:18:16;3.05;;;1.80;;
51467;SDS011;37545;45.302;-122.946;2023-09-30T04:20:47;2.40;;;1.50;;
51467;SDS011;37545;45.302;-122.946;2023-09-30T04:23:17;4.45;;;2.20;;
51467;SDS011;37545;45.302;-122.946;2023-09-30T04:25:49;4.22;;;1.85;;
51467;SDS011;37545;45.302;-122.946;2023-09-30T04:28:18;3.15;;;1.98;;
51467;SDS011;37545;45.302;-122.946;2023-09-30T04:30:47;7.30;;;2.22;;
51467;SDS011;37545;45.302;-122.946;2023-09-30T04:33:17;4.32;;;1.98;;
51467;SDS011;37545;45.302;-122.946;2023-09-30T04:35:47;6.60;;;2.00;;
51467;SDS011;37545;45.302;-122.946;2023-09-30T04:38:18;4.95;;;2.08;;
51467;SDS011;37545;45.302;-122.946;2023-09-30T04:40:46;4.88;;;2.08;;
51467;SDS011;37545;45.302;-122.946;2023-09-30T04:43:19;3.22;;;1.98;;
51467;SDS011;37545;45.302;-122.946;2023-09-30T04:45:47;3.53;;;1.80;;
51467;SDS011;37545;45.302;-122.946;2023-09-30T04:48:19;3.85;;;1.90;;
51467;SDS011;37545;45.302;-122.946;2023-09-30T04:50:48;6.18;;;2.17;;
51467;SDS011;37545;45.302;-122.946;2023-09-30T04:53:16;4.57;;;2.25;;
51467;SDS011;37545;45.302;-122.946;2023-09-30T04:55:45;2.95;;;1.95;;
51467;SDS011;37545;45.302;-122.946;2023-09-30T04:58:21;5.72;;;2.42;;
51467;SDS011;37545;45.302;-122.946;2023-09-30T05:00:50;6.32;;;2.35;;
51467;SDS011;37545;45.302;-122.946;2023-09-30T05:03:18;3.70;;;2.58;;
51467;SDS011;37545;45.302;-122.946;2023-09-30T05:05:47;9.80;;;2.28;;
51467;SDS011;37545;45.302;-122.946;2023-09-30T05:08:15;5.28;;;1.83;;
51467;SDS011;37545;45.302;-122.946;2023-09-30T05:10:46;3.38;;;2.28;;
51467;SDS011;37545;45.302;-122.946;2023-09-30T05:13:15;9.93;;;2.13;;
51467;SDS011;37545;45.302;-122.946;2023-09-30T05:15:46;5.93;;;1.73;;
51467;SDS011;37545;45.302;-122.946;2023-09-30T05:18:24;3.40;;;2.60;;
51467;SDS011;37545;45.302;-122.946;2023-09-30T05:20:55;7.95;;;2.35;;
51467;SDS011;37545;45.302;-122.946;2023-09-30T05:23:24;4.40;;;1.75;;
51467;SDS011;37545;45.302;-122.946;2023-09-30T05:25:58;5.68;;;1.70;;
51467;SDS011;37545;45.302;-122.946;2023-09-30T05:28:27;3.15;;;1.50;;
51467;SDS011;37545;45.302;-122.946;2023-09-30T05:30:57;6.25;;;2.03;;
51467;SDS011;37545;45.302;-122.946;2023-09-30T05:33:26;2.97;;;2.03;;
51467;SDS011;37545;45.302;-122.946;2023-09-30T05:35:54;4.00;;;2.25;;
51467;SDS011;37545;45.302;-122.946;2023-09-30T05:38:23;3.78;;;2.08;;
51467;SDS011;37545;45.302;-122.946;2023-09-30T05:40:52;3.50;;;1.80;;
51467;SDS011;37545;45.302;-122.946;2023-09-30T05:43:20;4.57;;;2.40;;
51467;SDS011;37545;45.302;-122.946;2023-09-30T05:45:49;2.33;;;1.50;;
51467;SDS011;37545;45.302;-122.946;2023-09-30T05:48:22;7.07;;;2.35;;
51467;SDS011;37545;45.302;-122.946;2023-09-30T05:50:50;7.88;;;2.20;;
51467;SDS011;37545;45.302;-122.946;2023-09-30T05:53:21;6.35;;;1.80;;
51467;SDS011;37545;45.302;-122.946;2023-09-30T05:55:50;2.72;;;1.92;;
51467;SDS011;37545;45.302;-122.946;2023-09-30T05:58:19;3.40;;;1.90;;
51467;SDS011;37545;45.302;-122.946;2023-09-30T06:00:49;5.05;;;2.17;;
51467;SDS011;37545;45.302;-122.946;2023-09-30T06:03:18;5.10;;;1.92;;
51467;SDS011;37545;45.302;-122.946;2023-09-30T06:05:49;3.65;;;2.45;;
51467;SDS011;37545;45.302;-122.946;2023-09-30T06:08:18;4.22;;;2.25;;
51467;SDS011;37545;45.302;-122.946;2023-09-30T06:10:47;7.40;;;2.50;;
51467;SDS011;37545;45.302;-122.946;2023-09-30T06:13:15;8.13;;;2.58;;
51467;SDS011;37545;45.302;-122.946;2023-09-30T06:15:44;3.60;;;2.20;;
51467;SDS011;37545;45.302;-122.946;2023-09-30T06:18:13;4.15;;;2.58;;
51467;SDS011;37545;45.302;-122.946;2023-09-30T06:20:42;4.88;;;2.58;;
51467;SDS011;37545;45.302;-122.946;2023-09-30T06:23:12;5.65;;;2.10;;
51467;SDS011;37545;45.302;-122.946;2023-09-30T06:25:41;4.55;;;2.13;;
51467;SDS011;37545;45.302;-122.946;2023-09-30T06:28:10;4.07;;;2.40;;
51467;SDS011;37545;45.302;-122.946;2023-09-30T06:30:40;6.68;;;2.47;;
51467;SDS011;37545;45.302;-122.946;2023-09-30T06:33:11;4.37;;;1.90;;
51467;SDS011;37545;45.302;-122.946;2023-09-30T06:35:41;4.07;;;2.45;;
51467;SDS011;37545;45.302;-122.946;2023-09-30T06:38:17;6.45;;;1.88;;
51467;SDS011;37545;45.302;-122.946;2023-09-30T06:40:47;3.53;;;2.13;;
51467;SDS011;37545;45.302;-122.946;2023-09-30T06:43:15;3.17;;;2.13;;
51467;SDS011;37545;45.302;-122.946;2023-09-30T06:45:47;2.85;;;1.88;;
51467;SDS011;37545;45.302;-122.946;2023-09-30T06:48:16;8.73;;;3.10;;
51467;SDS011;37545;45.302;-122.946;2023-09-30T06:50:45;5.93;;;2.20;;
51467;SDS011;37545;45.302;-122.946;2023-09-30T06:53:14;4.18;;;2.25;;
51467;SDS011;37545;45.302;-122.946;2023-09-30T06:55:44;5.35;;;2.35;;
51467;SDS011;37545;45.302;-122.946;2023-09-30T06:58:13;4.32;;;2.25;;
51467;SDS011;37545;45.302;-122.946;2023-09-30T07:00:46;7.40;;;2.05;;
51467;SDS011;37545;45.302;-122.946;2023-09-30T07:03:16;3.65;;;2.08;;
51467;SDS011;37545;45.302;-122.946;2023-09-30T07:05:45;3.65;;;2.25;;
51467;SDS011;37545;45.302;-122.946;2023-09-30T07:08:15;3.92;;;2.20;;
51467;SDS011;37545;45.302;-122.946;2023-09-30T07:10:46;6.00;;;2.33;;
51467;SDS011;37545;45.302;-122.946;2023-09-30T07:13:18;7.53;;;2.60;;
51467;SDS011;37545;45.302;-122.946;2023-09-30T07:15:46;7.88;;;2.50;;
51467;SDS011;37545;45.302;-122.946;2023-09-30T07:18:16;5.00;;;2.40;;
51467;SDS011;37545;45.302;-122.946;2023-09-30T07:20:45;4.10;;;2.40;;
51467;SDS011;37545;45.302;-122.946;2023-09-30T07:23:13;11.90;;;2.55;;
51467;SDS011;37545;45.302;-122.946;2023-09-30T07:25:41;4.97;;;2.75;;
51467;SDS011;37545;45.302;-122.946;2023-09-30T07:28:12;5.55;;;2.25;;
51467;SDS011;37545;45.302;-122.946;2023-09-30T07:30:40;4.32;;;2.55;;
51467;SDS011;37545;45.302;-122.946;2023-09-30T07:33:09;3.03;;;1.83;;
51467;SDS011;37545;45.302;-122.946;2023-09-30T07:35:38;4.78;;;2.50;;
51467;SDS011;37545;45.302;-122.946;2023-09-30T07:38:07;4.30;;;2.45;;
51467;SDS011;37545;45.302;-122.946;2023-09-30T07:40:35;2.35;;;1.67;;
51467;SDS011;37545;45.302;-122.946;2023-09-30T07:43:04;5.93;;;2.42;;
51467;SDS011;37545;45.302;-122.946;2023-09-30T07:45:34;7.40;;;2.28;;
51467;SDS011;37545;45.302;-122.946;2023-09-30T07:48:06;5.13;;;2.40;;
51467;SDS011;37545;45.302;-122.946;2023-09-30T07:50:35;6.72;;;2.55;;
51467;SDS011;37545;45.302;-122.946;2023-09-30T07:53:07;4.55;;;1.83;;
51467;SDS011;37545;45.302;-122.946;2023-09-30T07:55:37;4.30;;;2.55;;
51467;SDS011;37545;45.302;-122.946;2023-09-30T07:58:06;4.93;;;2.35;;
51467;SDS011;37545;45.302;-122.946;2023-09-30T08:00:36;3.95;;;2.00;;
51467;SDS011;37545;45.302;-122.946;2023-09-30T08:03:05;4.30;;;2.50;;
51467;SDS011;37545;45.302;-122.946;2023-09-30T08:05:34;7.10;;;3.08;;
51467;SDS011;37545;45.302;-122.946;2023-09-30T08:08:03;4.05;;;1.92;;
51467;SDS011;37545;45.302;-122.946;2023-09-30T08:10:32;5.97;;;2.55;;
51467;SDS011;37545;45.302;-122.946;2023-09-30T08:13:02;3.35;;;2.05;;
51467;SDS011;37545;45.302;-122.946;2023-09-30T08:15:40;6.55;;;2.42;;
51467;SDS011;37545;45.302;-122.946;2023-09-30T08:18:08;5.28;;;2.20;;
51467;SDS011;37545;45.302;-122.946;2023-09-30T08:20:44;5.57;;;2.45;;
51467;SDS011;37545;45.302;-122.946;2023-09-30T08:23:15;4.78;;;2.15;;
51467;SDS011;37545;45.302;-122.946;2023-09-30T08:25:43;6.45;;;2.45;;
51467;SDS011;37545;45.302;-122.946;2023-09-30T08:28:12;3.03;;;2.15;;
51467;SDS011;37545;45.302;-122.946;2023-09-30T08:30:42;4.03;;;2.35;;
51467;SDS011;37545;45.302;-122.946;2023-09-30T08:33:11;3.38;;;2.15;;
51467;SDS011;37545;45.302;-122.946;2023-09-30T08:35:41;4.85;;;2.55;;
51467;SDS011;37545;45.302;-122.946;2023-09-30T08:38:10;3.47;;;1.95;;
51467;SDS011;37545;45.302;-122.946;2023-09-30T08:40:38;5.78;;;2.80;;
51467;SDS011;37545;45.302;-122.946;2023-09-30T08:43:07;14.40;;;2.53;;
51467;SDS011;37545;45.302;-122.946;2023-09-30T08:45:39;5.28;;;2.60;;
51467;SDS011;37545;45.302;-122.946;2023-09-30T08:48:11;3.05;;;1.98;;
51467;SDS011;37545;45.302;-122.946;2023-09-30T08:50:40;4.75;;;2.65;;
51467;SDS011;37545;45.302;-122.946;2023-09-30T08:53:10;6.93;;;2.60;;
51467;SDS011;37545;45.302;-122.946;2023-09-30T08:55:42;5.18;;;2.42;;
51467;SDS011;37545;45.302;-122.946;2023-09-30T08:58:13;3.88;;;2.08;;
51467;SDS011;37545;45.302;-122.946;2023-09-30T09:00:44;5.13;;;1.80;;
51467;SDS011;37545;45.302;-122.946;2023-09-30T09:03:13;5.13;;;2.25;;
51467;SDS011;37545;45.302;-122.946;2023-09-30T09:05:53;4.57;;;2.70;;
51467;SDS011;37545;45.302;-122.946;2023-09-30T09:08:23;4.80;;;2.42;;
51467;SDS011;37545;45.302;-122.946;2023-09-30T09:10:55;5.70;;;2.45;;
51467;SDS011;37545;45.302;-122.946;2023-09-30T09:13:45;5.40;;;2.55;;
51467;SDS011;37545;45.302;-122.946;2023-09-30T09:16:17;3.72;;;2.15;;
51467;SDS011;37545;45.302;-122.946;2023-09-30T09:18:46;5.05;;;2.22;;
51467;SDS011;37545;45.302;-122.946;2023-09-30T09:21:16;5.32;;;2.40;;
51467;SDS011;37545;45.302;-122.946;2023-09-30T09:23:46;6.82;;;1.98;;
51467;SDS011;37545;45.302;-122.946;2023-09-30T09:26:23;5.80;;;2.42;;
51467;SDS011;37545;45.302;-122.946;2023-09-30T09:28:56;5.43;;;2.03;;
51467;SDS011;37545;45.302;-122.946;2023-09-30T09:31:27;4.93;;;2.45;;
51467;SDS011;37545;45.302;-122.946;2023-09-30T09:33:56;4.65;;;2.47;;
51467;SDS011;37545;45.302;-122.946;2023-09-30T09:36:37;3.45;;;2.33;;
51467;SDS011;37545;45.302;-122.946;2023-09-30T09:39:07;5.40;;;2.38;;
51467;SDS011;37545;45.302;-122.946;2023-09-30T09:41:48;3.47;;;2.47;;
51467;SDS011;37545;45.302;-122.946;2023-09-30T09:44:19;5.03;;;2.47;;
51467;SDS011;37545;45.302;-122.946;2023-09-30T09:46:50;5.43;;;2.58;;
51467;SDS011;37545;45.302;-122.946;2023-09-30T09:49:19;2.63;;;1.85;;
51467;SDS011;37545;45.302;-122.946;2023-09-30T09:51:51;5.88;;;2.40;;
51467;SDS011;37545;45.302;-122.946;2023-09-30T09:54:20;6.20;;;2.45;;
51467;SDS011;37545;45.302;-122.946;2023-09-30T09:56:51;5.28;;;2.88;;
51467;SDS011;37545;45.302;-122.946;2023-09-30T09:59:23;4.20;;;2.33;;
51467;SDS011;37545;45.302;-122.946;2023-09-30T10:01:57;3.53;;;1.92;;
51467;SDS011;37545;45.302;-122.946;2023-09-30T10:04:28;4.05;;;1.92;;
51467;SDS011;37545;45.302;-122.946;2023-09-30T10:06:58;5.72;;;2.55;;
51467;SDS011;37545;45.302;-122.946;2023-09-30T10:09:29;4.70;;;2.60;;
51467;SDS011;37545;45.302;-122.946;2023-09-30T10:12:02;5.00;;;2.60;;
51467;SDS011;37545;45.302;-122.946;2023-09-30T10:14:34;4.90;;;2.10;;
51467;SDS011;37545;45.302;-122.946;2023-09-30T10:17:08;3.63;;;2.05;;
51467;SDS011;37545;45.302;-122.946;2023-09-30T10:19:42;5.63;;;2.20;;
51467;SDS011;37545;45.302;-122.946;2023-09-30T10:22:34;8.02;;;2.65;;
51467;SDS011;37545;45.302;-122.946;2023-09-30T10:25:02;5.32;;;2.22;;
51467;SDS011;37545;45.302;-122.946;2023-09-30T10:31:14;4.05;;;2.17;;
51467;SDS011;37545;45.302;-122.946;2023-09-30T10:36:49;4.03;;;2.20;;
51467;SDS011;37545;45.302;-122.946;2023-09-30T10:42:44;5.88;;;2.42;;
51467;SDS011;37545;45.302;-122.946;2023-09-30T10:51:17;8.25;;;2.80;;
51467;SDS011;37545;45.302;-122.946;2023-09-30T10:53:51;4.28;;;2.50;;
51467;SDS011;37545;45.302;-122.946;2023-09-30T10:56:22;3.78;;;2.45;;
51467;SDS011;37545;45.302;-122.946;2023-09-30T10:58:53;8.88;;;2.53;;
51467;SDS011;37545;45.302;-122.946;2023-09-30T11:01:22;5.55;;;2.72;;
51467;SDS011;37545;45.302;-122.946;2023-09-30T11:03:59;3.75;;;2.15;;
51467;SDS011;37545;45.302;-122.946;2023-09-30T11:06:32;4.63;;;2.35;;
51467;SDS011;37545;45.302;-122.946;2023-09-30T11:09:01;2.85;;;2.30;;
51467;SDS011;37545;45.302;-122.946;2023-09-30T11:11:43;5.70;;;1.90;;
51467;SDS011;37545;45.302;-122.946;2023-09-30T11:14:17;6.70;;;2.53;;
51467;SDS011;37545;45.302;-122.946;2023-09-30T11:16:52;6.78;;;2.40;;
51467;SDS011;37545;45.302;-122.946;2023-09-30T11:19:22;4.72;;;2.78;;
51467;SDS011;37545;45.302;-122.946;2023-09-30T11:21:53;4.90;;;2.60;;
51467;SDS011;37545;45.302;-122.946;2023-09-30T11:24:24;3.55;;;2.08;;
51467;SDS011;37545;45.302;-122.946;2023-09-30T11:26:54;3.40;;;1.92;;
51467;SDS011;37545;45.302;-122.946;2023-09-30T11:29:23;4.57;;;2.22;;
51467;SDS011;37545;45.302;-122.946;2023-09-30T11:31:55;4.47;;;2.38;;
51467;SDS011;37545;45.302;-122.946;2023-09-30T11:34:31;3.17;;;1.85;;
51467;SDS011;37545;45.302;-122.946;2023-09-30T11:37:02;4.60;;;2.30;;
51467;SDS011;37545;45.302;-122.946;2023-09-30T11:39:31;3.65;;;2.42;;
51467;SDS011;37545;45.302;-122.946;2023-09-30T11:42:00;5.68;;;2.67;;
51467;SDS011;37545;45.302;-122.946;2023-09-30T11:44:30;3.03;;;2.17;;
51467;SDS011;37545;45.302;-122.946;2023-09-30T11:47:02;6.22;;;2.08;;
51467;SDS011;37545;45.302;-122.946;2023-09-30T11:49:31;4.15;;;2.85;;
51467;SDS011;37545;45.302;-122.946;2023-09-30T11:52:06;4.32;;;2.65;;
51467;SDS011;37545;45.302;-122.946;2023-09-30T11:54:36;3.85;;;1.80;;
51467;SDS011;37545;45.302;-122.946;2023-09-30T11:57:09;7.78;;;3.00;;
51467;SDS011;37545;45.302;-122.946;2023-09-30T11:59:40;5.28;;;2.60;;
51467;SDS011;37545;45.302;-122.946;2023-09-30T12:02:09;4.47;;;2.42;;
51467;SDS011;37545;45.302;-122.946;2023-09-30T12:04:41;5.82;;;2.50;;
51467;SDS011;37545;45.302;-122.946;2023-09-30T12:07:12;5.50;;;3.10;;
51467;SDS011;37545;45.302;-122.946;2023-09-30T12:09:40;4.93;;;2.70;;
51467;SDS011;37545;45.302;-122.946;2023-09-30T12:12:09;3.55;;;2.13;;
51467;SDS011;37545;45.302;-122.946;2023-09-30T12:14:40;4.57;;;2.70;;
51467;SDS011;37545;45.302;-122.946;2023-09-30T12:17:08;5.32;;;2.60;;
51467;SDS011;37545;45.302;-122.946;2023-09-30T12:19:44;3.63;;;2.40;;
51467;SDS011;37545;45.302;-122.946;2023-09-30T12:22:14;5.18;;;2.80;;
51467;SDS011;37545;45.302;-122.946;2023-09-30T12:24:51;5.40;;;2.80;;
51467;SDS011;37545;45.302;-122.946;2023-09-30T12:27:19;7.32;;;2.85;;
51467;SDS011;37545;45.302;-122.946;2023-09-30T12:29:48;4.40;;;2.38;;
51467;SDS011;37545;45.302;-122.946;2023-09-30T12:32:17;5.65;;;2.83;;
51467;SDS011;37545;45.302;-122.946;2023-09-30T12:34:48;9.55;;;3.13;;
51467;SDS011;37545;45.302;-122.946;2023-09-30T12:37:18;4.45;;;2.50;;
51467;SDS011;37545;45.302;-122.946;2023-09-30T12:39:47;4.05;;;2.47;;
51467;SDS011;37545;45.302;-122.946;2023-09-30T12:42:15;4.05;;;2.60;;
51467;SDS011;37545;45.302;-122.946;2023-09-30T12:44:47;4.60;;;2.75;;
51467;SDS011;37545;45.302;-122.946;2023-09-30T12:47:15;3.92;;;2.17;;
51467;SDS011;37545;45.302;-122.946;2023-09-30T12:49:44;8.57;;;3.03;;
51467;SDS011;37545;45.302;-122.946;2023-09-30T12:52:13;6.70;;;2.53;;
51467;SDS011;37545;45.302;-122.946;2023-09-30T12:54:44;5.68;;;2.83;;
51467;SDS011;37545;45.302;-122.946;2023-09-30T12:57:14;3.90;;;2.30;;
51467;SDS011;37545;45.302;-122.946;2023-09-30T12:59:43;5.57;;;2.92;;
51467;SDS011;37545;45.302;-122.946;2023-09-30T13:02:12;5.75;;;2.60;;
51467;SDS011;37545;45.302;-122.946;2023-09-30T13:04:41;6.05;;;2.58;;
51467;SDS011;37545;45.302;-122.946;2023-09-30T13:07:15;8.37;;;2.63;;
51467;SDS011;37545;45.302;-122.946;2023-09-30T13:09:45;4.72;;;2.42;;
51467;SDS011;37545;45.302;-122.946;2023-09-30T13:12:14;8.82;;;2.60;;
51467;SDS011;37545;45.302;-122.946;2023-09-30T13:14:43;5.35;;;2.83;;
51467;SDS011;37545;45.302;-122.946;2023-09-30T13:17:11;6.95;;;2.95;;
51467;SDS011;37545;45.302;-122.946;2023-09-30T13:19:41;4.57;;;2.50;;
51467;SDS011;37545;45.302;-122.946;2023-09-30T13:22:10;5.00;;;2.80;;
51467;SDS011;37545;45.302;-122.946;2023-09-30T13:24:42;5.17;;;2.50;;
51467;SDS011;37545;45.302;-122.946;2023-09-30T13:27:12;6.45;;;2.83;;
51467;SDS011;37545;45.302;-122.946;2023-09-30T13:29:41;5.55;;;2.70;;
51467;SDS011;37545;45.302;-122.946;2023-09-30T13:32:10;7.53;;;2.70;;
51467;SDS011;37545;45.302;-122.946;2023-09-30T13:34:39;5.38;;;3.05;;
51467;SDS011;37545;45.302;-122.946;2023-09-30T13:37:08;4.43;;;2.90;;
51467;SDS011;37545;45.302;-122.946;2023-09-30T13:39:36;7.35;;;2.95;;
51467;SDS011;37545;45.302;-122.946;2023-09-30T13:42:05;3.70;;;2.78;;
51467;SDS011;37545;45.302;-122.946;2023-09-30T13:44:36;4.47;;;2.42;;
51467;SDS011;37545;45.302;-122.946;2023-09-30T13:47:04;4.88;;;2.72;;
51467;SDS011;37545;45.302;-122.946;2023-09-30T13:49:33;8.48;;;2.92;;
51467;SDS011;37545;45.302;-122.946;2023-09-30T13:52:02;7.57;;;3.22;;
51467;SDS011;37545;45.302;-122.946;2023-09-30T13:54:32;5.00;;;2.72;;
51467;SDS011;37545;45.302;-122.946;2023-09-30T13:57:03;4.40;;;2.53;;
51467;SDS011;37545;45.302;-122.946;2023-09-30T13:59:33;6.72;;;3.00;;
51467;SDS011;37545;45.302;-122.946;2023-09-30T14:02:05;5.35;;;2.50;;
51467;SDS011;37545;45.302;-122.946;2023-09-30T14:04:36;6.63;;;2.95;;
51467;SDS011;37545;45.302;-122.946;2023-09-30T14:07:06;5.13;;;2.60;;
51467;SDS011;37545;45.302;-122.946;2023-09-30T14:09:35;7.75;;;2.80;;
51467;SDS011;37545;45.302;-122.946;2023-09-30T14:12:03;5.55;;;2.88;;
51467;SDS011;37545;45.302;-122.946;2023-09-30T14:14:34;5.20;;;3.15;;
51467;SDS011;37545;45.302;-122.946;2023-09-30T14:17:04;6.72;;;2.63;;
51467;SDS011;37545;45.302;-122.946;2023-09-30T14:19:35;4.05;;;2.65;;
51467;SDS011;37545;45.302;-122.946;2023-09-30T14:22:06;5.63;;;3.05;;
51467;SDS011;37545;45.302;-122.946;2023-09-30T14:24:37;6.90;;;2.65;;
51467;SDS011;37545;45.302;-122.946;2023-09-30T14:27:06;7.43;;;3.03;;
51467;SDS011;37545;45.302;-122.946;2023-09-30T14:29:36;5.57;;;2.63;;
51467;SDS011;37545;45.302;-122.946;2023-09-30T14:32:05;3.58;;;2.50;;
51467;SDS011;37545;45.302;-122.946;2023-09-30T14:34:34;7.45;;;3.20;;
51467;SDS011;37545;45.302;-122.946;2023-09-30T14:37:06;3.90;;;2.17;;
51467;SDS011;37545;45.302;-122.946;2023-09-30T14:39:34;5.82;;;2.35;;
51467;SDS011;37545;45.302;-122.946;2023-09-30T14:42:04;5.82;;;2.47;;